Time;durP1;ratioP1;P1;durP2;ratioP2;P2;SDS_P1;SDS_P2;PMS_P1;PMS_P2;Temp;Humidity;BMP_temperature;BMP_pressure;BME280_temperature;BME280_humidity;BME280_pressure;Samples;Min_cycle;Max_cycle;Signal;HPM_P1;HPM_P2
2023/03/01 00:00:07;;;;;;;17.73;10.20;;;-2.90;1.00;;;-0.82;100.00;96240.22;4969767;28;20236;-68
2023/03/01 00:02:34;;;;;;;17.67;8.93;;;-2.90;1.00;;;-0.85;100.00;96244.00;4968377;28;20204;-68
2023/03/01 00:05:01;;;;;;;16.03;9.43;;;-2.90;1.00;;;-0.85;100.00;96246.63;4968067;28;20212;-68
2023/03/01 00:07:29;;;;;;;16.00;9.03;;;-2.90;1.00;;;-0.92;100.00;96236.03;4964964;28;20271;-69
2023/03/01 00:09:56;;;;;;;17.73;10.03;;;-3.00;1.00;;;-0.95;100.00;96230.34;4969427;28;20807;-69
2023/03/01 00:12:23;;;;;;;15.93;9.27;;;-3.00;1.00;;;-1.02;100.00;96225.97;4969802;28;20208;-68
2023/03/01 00:14:50;;;;;;;16.90;9.20;;;-3.10;1.00;;;-1.08;100.00;96226.66;4966057;28;20227;-68
2023/03/01 00:17:17;;;;;;;14.50;9.37;;;-3.10;1.00;;;-1.10;100.00;96229.44;4962922;28;20552;-68
2023/03/01 00:19:44;;;;;;;16.90;9.53;;;-3.20;1.00;;;-1.12;100.00;96234.84;4968307;28;20240;-68
2023/03/01 00:22:10;;;;;;;19.90;10.13;;;-3.20;1.00;;;-1.12;100.00;96232.22;4965730;28;20213;-68
2023/03/01 00:24:38;;;;;;;16.90;9.97;;;-3.20;1.00;;;-1.11;100.00;96226.00;4970849;28;20208;-68
2023/03/01 00:27:05;;;;;;;18.90;9.53;;;-3.20;1.00;;;-1.16;100.00;96232.75;4972874;28;20220;-69
2023/03/01 00:29:32;;;;;;;19.63;10.10;;;-3.20;1.00;;;-1.18;100.00;96236.53;4966881;28;20206;-68
2023/03/01 00:31:59;;;;;;;14.83;9.77;;;-3.20;1.00;;;-1.18;100.00;96232.09;4968285;28;20742;-68
2023/03/01 00:34:26;;;;;;;16.27;9.50;;;-3.20;1.00;;;-1.17;100.00;96233.72;4964232;28;21118;-68
2023/03/01 00:36:52;;;;;;;18.47;9.30;;;-3.30;1.00;;;-1.27;100.00;96241.78;4969033;28;20272;-68
2023/03/01 00:39:19;;;;;;;18.63;9.23;;;-3.30;1.00;;;-1.34;100.00;96234.81;4967154;28;20220;-68
2023/03/01 00:41:47;;;;;;;18.37;9.80;;;-3.40;1.00;;;-1.35;100.00;96239.19;4967973;28;20283;-69
2023/03/01 00:44:14;;;;;;;16.47;9.40;;;-3.40;1.00;;;-1.33;100.00;96231.19;4964640;28;20258;-68
2023/03/01 00:46:41;;;;;;;17.10;9.33;;;-3.40;1.00;;;-1.34;100.00;96224.34;4969424;28;20647;-67
2023/03/01 00:49:08;;;;;;;16.00;9.20;;;-3.40;1.00;;;-1.37;100.00;96219.44;4969438;28;20658;-69
2023/03/01 00:51:35;;;;;;;14.33;9.37;;;-3.40;1.00;;;-1.35;100.00;96218.28;4974410;28;20255;-69
2023/03/01 00:54:03;;;;;;;17.10;10.23;;;-3.40;1.00;;;-1.39;100.00;96218.81;4966518;28;20598;-69
2023/03/01 00:56:31;;;;;;;14.63;9.13;;;-3.40;1.00;;;-1.49;100.00;96220.81;4964378;28;20208;-68
2023/03/01 00:58:59;;;;;;;19.30;9.67;;;-3.50;1.00;;;-1.49;100.00;96225.25;4969728;28;20216;-69
2023/03/01 01:01:30;;;;;;;16.90;9.33;;;-3.50;1.00;;;-1.45;100.00;96220.28;4964703;28;20239;-69
2023/03/01 01:04:00;;;;;;;16.13;9.47;;;-3.50;1.00;;;-1.48;100.00;96222.44;4970712;28;20353;-68
2023/03/01 01:06:29;;;;;;;19.23;10.20;;;-3.50;1.00;;;-1.48;100.00;96211.97;4967003;28;20208;-68
2023/03/01 01:08:57;;;;;;;17.13;9.37;;;-3.50;1.00;;;-1.47;100.00;96217.03;4970943;28;20208;-68
2023/03/01 01:11:28;;;;;;;15.60;9.30;;;-3.50;1.00;;;-1.48;100.00;96207.56;4963774;28;20220;-68
2023/03/01 01:13:57;;;;;;;16.93;9.30;;;-3.50;1.00;;;-1.50;100.00;96211.34;4967571;28;20713;-68
2023/03/01 01:16:28;;;;;;;17.63;10.37;;;-3.50;1.00;;;-1.48;100.00;96202.34;4966944;28;20203;-68
2023/03/01 01:18:55;;;;;;;20.40;10.17;;;-3.50;1.00;;;-1.47;100.00;96206.59;4965883;28;20196;-68
2023/03/01 01:21:25;;;;;;;17.87;8.63;;;-3.50;1.00;;;-1.41;100.00;96205.88;4967472;28;20643;-67
2023/03/01 01:23:52;;;;;;;18.07;9.87;;;-3.50;1.00;;;-1.48;100.00;96203.34;4968686;28;20244;-68
2023/03/01 01:26:22;;;;;;;20.00;9.90;;;-3.60;1.00;;;-1.52;100.00;96205.47;4962202;28;20223;-69
2023/03/01 01:28:49;;;;;;;19.07;10.67;;;-3.60;1.00;;;-1.56;100.00;96206.78;4968069;28;20216;-68
2023/03/01 01:31:16;;;;;;;21.67;9.87;;;-3.60;1.00;;;-1.53;100.00;96200.41;4965106;28;20204;-69
2023/03/01 01:33:46;;;;;;;17.47;9.73;;;-3.60;1.00;;;-1.46;100.00;96194.34;4961847;28;20275;-68
2023/03/01 01:36:13;;;;;;;19.10;10.23;;;-3.50;1.00;;;-1.43;100.00;96201.03;4962042;28;20216;-68
2023/03/01 01:38:42;;;;;;;17.60;9.87;;;-3.50;1.00;;;-1.40;100.00;96189.19;4963634;28;21016;-69
2023/03/01 01:41:11;;;;;;;18.20;10.17;;;-3.40;1.00;;;-1.42;100.00;96190.38;4969048;28;20684;-68
2023/03/01 01:43:41;;;;;;;17.53;9.57;;;-3.50;1.00;;;-1.44;100.00;96189.72;4963585;28;20224;-69
2023/03/01 01:46:20;;;;;;;20.33;10.67;;;-3.40;1.00;;;-1.42;100.00;96188.56;4966303;28;20210;-68
2023/03/01 01:48:53;;;;;;;17.27;10.33;;;-3.50;1.00;;;-1.43;100.00;96180.09;4965553;28;20204;-69
2023/03/01 01:51:26;;;;;;;21.30;10.00;;;-3.40;1.00;;;-1.47;100.00;96183.03;4967336;28;20221;-68
2023/03/01 01:53:58;;;;;;;17.83;10.43;;;-3.40;1.00;;;-1.42;100.00;96185.97;4964138;28;20205;-69
2023/03/01 01:56:27;;;;;;;18.73;9.90;;;-3.40;1.00;;;-1.52;100.00;96183.72;4965054;28;20310;-69
2023/03/01 01:58:54;;;;;;;18.53;9.67;;;-3.40;1.00;;;-1.42;100.00;96186.94;4970144;28;20216;-69
2023/03/01 02:01:21;;;;;;;16.73;9.80;;;-3.40;1.00;;;-1.53;100.00;96179.50;4969390;28;20761;-69
2023/03/01 02:03:50;;;;;;;18.70;9.73;;;-3.50;1.00;;;-1.45;100.00;96178.44;4970768;28;20212;-68
2023/03/01 02:06:28;;;;;;;20.20;10.93;;;-3.50;1.00;;;-1.49;100.00;96175.56;4963235;28;20763;-68
2023/03/01 02:08:58;;;;;;;18.40;10.30;;;-3.50;1.00;;;-1.49;100.00;96165.91;4971616;28;20228;-69
2023/03/01 02:11:26;;;;;;;18.43;9.57;;;-3.50;1.00;;;-1.46;100.00;96165.56;4970714;28;20216;-68
2023/03/01 02:13:55;;;;;;;18.57;9.97;;;-3.50;1.00;;;-1.53;100.00;96172.44;4966786;28;20209;-69
2023/03/01 02:16:22;;;;;;;19.90;10.53;;;-3.50;1.00;;;-1.46;100.00;96168.19;4969330;28;20270;-69
2023/03/01 02:18:51;;;;;;;17.57;10.13;;;-3.50;1.00;;;-1.50;100.00;96169.50;4971967;28;20530;-68
2023/03/01 02:21:38;;;;;;;20.10;10.53;;;-3.50;1.00;;;-1.48;100.00;96177.19;4967900;28;20228;-68
2023/03/01 02:24:22;;;;;;;19.60;11.30;;;-3.50;1.00;;;-1.47;100.00;96166.56;4964343;28;20193;-69
2023/03/01 02:26:54;;;;;;;18.63;10.73;;;-3.50;1.00;;;-1.48;100.00;96155.25;4965465;28;20593;-68
2023/03/01 02:29:24;;;;;;;22.27;10.20;;;-3.50;1.00;;;-1.50;100.00;96159.03;4963711;28;20189;-70
2023/03/01 02:31:53;;;;;;;20.27;10.93;;;-3.50;1.00;;;-1.56;100.00;96157.13;4966408;28;20204;-68
2023/03/01 02:34:24;;;;;;;20.53;10.33;;;-3.50;1.00;;;-1.59;100.00;96154.03;4966684;28;20208;-68
2023/03/01 02:36:56;;;;;;;18.37;10.83;;;-3.60;1.00;;;-1.58;100.00;96145.19;4962796;28;20216;-68
2023/03/01 02:39:28;;;;;;;20.27;10.53;;;-3.60;1.00;;;-1.54;100.00;96134.22;4966960;28;20275;-69
2023/03/01 02:41:57;;;;;;;16.93;10.40;;;-3.60;1.00;;;-1.59;100.00;96133.13;4967051;28;20228;-69
2023/03/01 02:44:25;;;;;;;23.03;10.47;;;-3.60;1.00;;;-1.66;100.00;96139.00;4966853;28;20632;-69
2023/03/01 02:46:56;;;;;;;18.60;10.63;;;-3.70;1.00;;;-1.63;100.00;96130.84;4970311;28;20647;-68
2023/03/01 02:49:27;;;;;;;19.53;10.50;;;-3.70;1.00;;;-1.76;100.00;96137.59;4971268;28;20208;-68
2023/03/01 02:52:28;;;;;;;18.37;10.40;;;-3.70;1.00;;;-1.79;100.00;96127.47;4968908;28;20287;-68
2023/03/01 02:54:59;;;;;;;20.80;11.30;;;-3.80;1.00;;;-1.74;100.00;96127.00;4970497;28;20267;-68
2023/03/01 02:57:29;;;;;;;21.07;11.67;;;-3.80;1.00;;;-1.76;100.00;96124.53;4970573;28;20264;-68
2023/03/01 03:00:00;;;;;;;17.70;10.30;;;-3.80;1.00;;;-1.77;100.00;96126.31;4966509;28;20295;-68
2023/03/01 03:02:36;;;;;;;17.90;10.07;;;-3.80;1.00;;;-1.79;100.00;96129.31;4960348;28;20236;-69
2023/03/01 03:05:08;;;;;;;19.97;10.90;;;-3.90;1.00;;;-1.82;100.00;96120.78;4965872;28;20295;-68
2023/03/01 03:07:36;;;;;;;20.10;11.80;;;-3.80;1.00;;;-1.81;100.00;96117.19;4961763;28;20675;-68
2023/03/01 03:10:04;;;;;;;22.63;11.43;;;-3.80;1.00;;;-1.79;100.00;96111.81;4966775;28;20216;-68
2023/03/01 03:12:34;;;;;;;20.70;10.70;;;-3.80;1.00;;;-1.67;100.00;96109.63;4959353;28;20247;-69
2023/03/01 03:15:08;;;;;;;20.23;10.93;;;-3.70;1.00;;;-1.63;100.00;96106.47;4968968;28;20212;-68
2023/03/01 03:17:35;;;;;;;21.27;11.10;;;-3.60;1.00;;;-1.60;100.00;96108.75;4970723;28;20246;-68
2023/03/01 03:20:11;;;;;;;18.43;10.93;;;-3.60;1.00;;;-1.54;100.00;96107.28;4964768;28;20696;-68
2023/03/01 03:22:39;;;;;;;23.70;11.80;;;-3.60;1.00;;;-1.58;100.00;96105.97;4968981;28;20322;-68
2023/03/01 03:25:10;;;;;;;21.87;10.83;;;-3.60;1.00;;;-1.53;100.00;96101.03;4968949;28;20303;-69
2023/03/01 03:27:37;;;;;;;24.07;12.47;;;-3.50;1.00;;;-1.42;100.00;96092.78;4969228;28;20651;-69
2023/03/01 03:30:09;;;;;;;20.37;11.70;;;-3.40;1.00;;;-1.33;100.00;96098.59;4969680;28;20247;-69
2023/03/01 03:32:36;;;;;;;19.63;11.43;;;-3.40;1.00;;;-1.36;100.00;96096.31;4957788;28;20272;-69
2023/03/01 03:35:08;;;;;;;18.27;11.03;;;-3.40;1.00;;;-1.33;100.00;96098.59;4966596;28;20750;-69
2023/03/01 03:40:29;;;;;;;20.17;11.70;;;-3.30;1.00;;;-1.19;100.00;96089.19;4968988;28;20255;-68
2023/03/01 03:42:56;;;;;;;19.50;11.03;;;-3.20;1.00;;;-1.17;100.00;96089.81;4965376;28;20268;-69
2023/03/01 03:45:24;;;;;;;26.07;11.63;;;-3.30;1.00;;;-1.16;100.00;96088.84;4972595;28;20290;-69
2023/03/01 03:47:51;;;;;;;23.77;11.47;;;-3.20;1.00;;;-1.21;100.00;96089.34;4968123;28;20208;-69
2023/03/01 03:50:19;;;;;;;21.90;11.67;;;-3.20;1.00;;;-1.13;100.00;96092.91;4967305;28;20263;-69
2023/03/01 03:52:45;;;;;;;21.03;10.80;;;-3.10;1.00;;;-1.13;100.00;96091.91;4968591;28;20212;-68
2023/03/01 03:55:13;;;;;;;23.73;11.50;;;-3.20;1.00;;;-1.12;100.00;96085.69;4969225;28;20212;-69
2023/03/01 03:57:42;;;;;;;21.70;11.13;;;-3.20;1.00;;;-1.01;100.00;96082.66;4967531;28;20204;-68
2023/03/01 04:00:12;;;;;;;20.47;11.83;;;-3.10;1.00;;;-1.01;100.00;96076.63;4972155;28;20244;-69
2023/03/01 04:02:41;;;;;;;21.27;11.30;;;-3.10;1.00;;;-1.06;100.00;96087.59;4970929;28;20234;-69
2023/03/01 04:05:09;;;;;;;19.43;10.83;;;-3.10;1.00;;;-1.01;100.00;96080.03;4969207;28;20309;-68
2023/03/01 04:07:37;;;;;;;23.70;11.97;;;-3.00;1.00;;;-0.98;100.00;96078.88;4968160;28;20266;-69
2023/03/01 04:10:06;;;;;;;21.27;10.83;;;-3.00;1.00;;;-1.02;100.00;96074.97;4960724;28;20670;-70
2023/03/01 04:12:36;;;;;;;22.13;12.37;;;-3.00;1.00;;;-1.06;100.00;96068.47;4966441;28;20209;-69
2023/03/01 04:15:12;;;;;;;22.93;12.37;;;-3.10;1.00;;;-1.02;100.00;96070.56;4971329;28;20262;-69
2023/03/01 04:17:41;;;;;;;20.30;12.17;;;-3.00;1.00;;;-1.01;100.00;96074.00;4968560;28;20264;-68
2023/03/01 04:20:10;;;;;;;22.37;11.37;;;-3.00;1.00;;;-1.01;100.00;96072.19;4971022;28;20730;-69
2023/03/01 04:22:37;;;;;;;21.43;12.37;;;-3.00;1.00;;;-0.98;100.00;96075.44;4971328;28;20863;-69
2023/03/01 04:25:06;;;;;;;20.40;11.83;;;-3.00;1.00;;;-1.03;100.00;96068.13;4968483;28;20212;-69
2023/03/01 04:27:34;;;;;;;19.80;11.50;;;-3.00;1.00;;;-0.91;100.00;96067.50;4967481;28;20248;-69
2023/03/01 04:30:00;;;;;;;20.30;11.20;;;-3.00;1.00;;;-0.95;100.00;96061.00;4961185;28;20617;-68
2023/03/01 04:32:27;;;;;;;23.00;12.80;;;-2.90;1.00;;;-0.82;100.00;96061.22;4965880;28;20208;-69
2023/03/01 04:34:55;;;;;;;24.77;12.60;;;-2.90;1.00;;;-0.95;100.00;96053.13;4973312;28;20626;-69
2023/03/01 04:37:23;;;;;;;22.23;11.50;;;-2.90;1.00;;;-0.98;100.00;96056.13;4967542;28;20283;-69
2023/03/01 04:39:50;;;;;;;24.73;13.20;;;-2.90;1.00;;;-0.82;100.00;96054.34;4961945;28;20217;-69
2023/03/01 04:42:17;;;;;;;21.30;11.93;;;-2.90;1.00;;;-0.80;100.00;96051.38;4964764;28;20235;-69
2023/03/01 04:44:44;;;;;;;21.10;12.23;;;-2.90;1.00;;;-0.87;100.00;96060.94;4967430;28;20610;-69
2023/03/01 04:47:11;;;;;;;22.90;12.17;;;-2.90;1.00;;;-0.85;100.00;96063.38;4963360;28;20880;-69
2023/03/01 04:49:38;;;;;;;18.97;11.27;;;-2.90;1.00;;;-0.88;100.00;96062.94;4971812;28;20204;-69
2023/03/01 04:52:06;;;;;;;21.83;13.57;;;-2.90;1.00;;;-0.82;100.00;96066.44;4965226;28;20216;-68
2023/03/01 04:54:34;;;;;;;22.33;11.57;;;-2.90;1.00;;;-0.83;100.00;96066.63;4964372;28;21832;-69
2023/03/01 04:57:01;;;;;;;26.43;12.23;;;-2.90;1.00;;;-0.73;100.00;96064.56;4964154;28;20213;-69
2023/03/01 04:59:29;;;;;;;22.43;12.47;;;-2.90;1.00;;;-0.73;100.00;96064.56;4964691;28;20204;-69
2023/03/01 05:01:57;;;;;;;22.20;11.67;;;-2.90;1.00;;;-0.75;100.00;96069.16;4962938;28;20224;-68
2023/03/01 05:04:24;;;;;;;23.93;13.00;;;-2.80;1.00;;;-0.82;100.00;96051.75;4959708;28;20213;-69
2023/03/01 05:06:51;;;;;;;23.80;12.57;;;-2.90;1.00;;;-0.72;100.00;96061.78;4967170;28;20271;-69
2023/03/01 05:09:19;;;;;;;22.43;12.10;;;-2.80;1.00;;;-0.76;100.00;96059.69;4968247;28;20208;-68
2023/03/01 05:11:46;;;;;;;20.03;12.00;;;-2.80;1.00;;;-0.76;100.00;96059.69;4957879;28;20267;-69
2023/03/01 05:14:13;;;;;;;22.77;12.60;;;-2.80;1.00;;;-0.81;100.00;96064.66;4967197;28;20621;-69
2023/03/01 05:16:39;;;;;;;27.00;12.97;;;-2.80;1.00;;;-0.78;100.00;96059.03;4961936;28;20205;-69
2023/03/01 05:19:11;;;;;;;23.07;12.40;;;-2.80;1.00;;;-0.64;100.00;96060.88;4963645;28;20267;-69
2023/03/01 05:22:01;;;;;;;21.83;12.57;;;-2.80;1.00;;;-0.71;100.00;96052.91;4963749;28;20224;-70
2023/03/01 05:24:28;;;;;;;26.63;12.73;;;-2.80;1.00;;;-0.67;100.00;96054.19;4961190;28;20558;-69
2023/03/01 05:26:55;;;;;;;25.90;13.63;;;-2.80;1.00;;;-0.68;100.00;96054.38;4969894;28;20216;-68
2023/03/01 05:29:25;;;;;;;25.07;12.23;;;-2.80;1.00;;;-0.77;100.00;96048.41;4970724;28;20274;-69
2023/03/01 05:31:53;;;;;;;20.60;12.33;;;-2.80;1.00;;;-0.77;100.00;96055.44;4967994;28;20204;-69
2023/03/01 05:34:24;;;;;;;20.90;12.47;;;-2.80;1.00;;;-0.75;100.00;96054.25;4968154;28;20215;-69
2023/03/01 05:36:52;;;;;;;20.43;12.40;;;-2.80;1.00;;;-0.65;100.00;96056.63;4966409;28;20232;-71
2023/03/01 05:39:22;;;;;;;22.37;12.70;;;-2.70;1.00;;;-0.69;100.00;96052.75;4968368;28;20263;-69
2023/03/01 05:41:54;;;;;;;22.90;13.00;;;-2.70;1.00;;;-0.57;100.00;96059.16;4964147;28;20244;-69
2023/03/01 05:44:20;;;;;;;24.00;13.60;;;-2.70;1.00;;;-0.54;100.00;96045.72;4964892;28;20266;-70
2023/03/01 05:46:48;;;;;;;22.60;12.30;;;-2.70;1.00;;;-0.57;100.00;96052.13;4966232;28;20215;-70
2023/03/01 05:49:15;;;;;;;20.53;11.87;;;-2.70;1.00;;;-0.51;100.00;96058.41;4965020;28;20236;-69
2023/03/01 05:51:42;;;;;;;20.43;11.93;;;-2.80;1.00;;;-0.61;100.00;96055.25;4964967;28;20212;-69
2023/03/01 05:54:09;;;;;;;25.10;12.57;;;-2.70;1.00;;;-0.73;100.00;96051.47;4963355;28;20216;-69
2023/03/01 05:56:37;;;;;;;26.70;13.40;;;-2.70;1.00;;;-0.78;100.00;96042.53;4965136;28;20212;-69
2023/03/01 05:59:06;;;;;;;22.17;12.30;;;-2.70;1.00;;;-0.73;100.00;96052.28;4962612;28;20727;-69
2023/03/01 06:01:33;;;;;;;20.63;12.20;;;-2.70;1.00;;;-0.60;100.00;96049.06;4967928;28;20881;-70
2023/03/01 06:04:00;;;;;;;24.30;12.87;;;-2.70;1.00;;;-0.60;100.00;96046.44;4964433;28;20627;-70
2023/03/01 06:06:26;;;;;;;26.23;13.03;;;-2.70;1.00;;;-0.61;100.00;96055.25;4963488;28;20259;-70
2023/03/01 06:08:54;;;;;;;22.23;12.70;;;-2.70;1.00;;;-0.65;100.00;96041.72;4966012;28;20232;-70
2023/03/01 06:11:21;;;;;;;23.63;12.93;;;-2.70;1.00;;;-0.59;100.00;96043.63;4965652;28;20267;-70
2023/03/01 06:13:48;;;;;;;25.90;13.03;;;-2.70;1.00;;;-0.58;100.00;96044.44;4964136;28;20259;-70
2023/03/01 06:16:16;;;;;;;21.57;13.30;;;-2.70;1.00;;;-0.57;100.00;96047.88;4964415;28;20224;-70
2023/03/01 06:18:43;;;;;;;23.10;12.50;;;-2.70;1.00;;;-0.57;100.00;96040.81;4964273;28;20282;-70
2023/03/01 06:21:10;;;;;;;23.20;12.20;;;-2.60;1.00;;;-0.47;100.00;96043.97;4969303;28;20212;-73
2023/03/01 06:23:37;;;;;;;24.53;13.03;;;-2.70;1.00;;;-0.46;100.00;96043.81;4960348;28;20235;-72
2023/03/01 06:26:07;;;;;;;24.13;13.77;;;-2.60;1.00;;;-0.34;100.00;96044.16;4961650;28;20260;-72
2023/03/01 06:28:34;;;;;;;23.10;13.63;;;-2.60;1.00;;;-0.32;100.00;96044.78;4967741;28;20271;-73
2023/03/01 06:31:00;;;;;;;21.67;12.53;;;-2.50;1.00;;;-0.36;100.00;96039.09;4971462;28;20212;-72
2023/03/01 06:33:28;;;;;;;23.30;13.97;;;-2.50;1.00;;;-0.24;100.00;96042.88;4956866;28;20213;-77
2023/03/01 06:35:56;;;;;;;25.90;13.80;;;-2.40;1.00;;;-0.28;100.00;96044.25;4964902;28;20252;-68
2023/03/01 06:38:23;;;;;;;25.93;13.90;;;-2.40;1.00;;;-0.27;100.00;96042.44;4964120;28;20216;-67
2023/03/01 06:40:53;;;;;;;22.97;13.20;;;-2.40;1.00;;;-0.22;100.00;96035.66;4962732;28;20303;-67
2023/03/01 06:43:20;;;;;;;23.57;12.53;;;-2.30;1.00;;;-0.18;100.00;96041.34;4967782;28;20327;-68
2023/03/01 06:45:47;;;;;;;23.90;12.17;;;-2.30;1.00;;;-0.11;100.00;96031.75;4966522;28;20349;-67
2023/03/01 06:48:14;;;;;;;23.87;13.20;;;-2.30;1.00;;;-0.16;100.00;96048.03;4963748;28;20746;-67
2023/03/01 06:50:42;;;;;;;24.27;13.90;;;-2.30;1.00;;;0.03;100.00;96036.97;4966185;28;20262;-67
2023/03/01 06:53:09;;;;;;;23.10;13.37;;;-2.30;1.00;;;0.06;100.00;96033.19;4966012;28;20267;-68
2023/03/01 06:55:35;;;;;;;23.43;13.43;;;-2.20;1.00;;;0.08;100.00;96033.78;4971736;28;20216;-67
2023/03/01 06:58:03;;;;;;;27.07;13.87;;;-2.20;1.00;;;-0.01;100.00;96038.34;4963957;28;20658;-67
2023/03/01 07:00:31;;;;;;;24.37;13.17;;;-2.10;1.00;;;0.00;100.00;96026.84;4959920;28;20240;-67
2023/03/01 07:03:01;;;;;;;21.17;12.73;;;-2.10;1.00;;;0.09;100.00;96017.88;4965120;28;21103;-67
2023/03/01 07:05:29;;;;;;;25.90;12.60;;;-2.10;1.00;;;0.00;100.00;96019.00;4969251;28;20262;-67
2023/03/01 07:07:57;;;;;;;23.67;13.20;;;-2.10;1.00;;;0.08;100.00;96018.91;4961966;28;20586;-68
2023/03/01 07:10:24;;;;;;;21.17;12.27;;;-2.10;1.00;;;0.15;100.00;96014.53;4961249;28;20283;-67
2023/03/01 07:12:51;;;;;;;24.47;13.57;;;-2.00;1.00;;;0.28;100.00;96019.91;4963244;28;21051;-67
2023/03/01 07:15:18;;;;;;;23.27;11.90;;;-2.00;1.00;;;0.38;100.00;96022.22;4968123;28;20208;-67
2023/03/01 07:17:47;;;;;;;22.53;12.93;;;-1.90;1.00;;;0.44;100.00;96017.06;4957269;28;20212;-67
2023/03/01 07:20:15;;;;;;;23.27;12.87;;;-1.90;1.00;;;0.47;100.00;96005.38;4970282;28;20213;-67
2023/03/01 07:22:42;;;;;;;21.70;12.57;;;-1.80;1.00;;;0.47;100.00;96005.38;4958349;28;20231;-67
2023/03/01 07:25:11;;;;;;;22.47;11.90;;;-1.80;1.00;;;0.58;100.00;96007.50;4965002;28;20208;-67
2023/03/01 07:27:38;;;;;;;22.17;12.37;;;-1.70;1.00;;;0.58;100.00;96004.88;4964789;28;20204;-67
2023/03/01 07:30:06;;;;;;;23.53;12.53;;;-1.70;1.00;;;0.42;100.00;96005.91;4963379;28;20216;-67
2023/03/01 07:32:33;;;;;;;21.33;12.57;;;-1.70;1.00;;;0.48;100.00;95999.13;4967008;28;20283;-67
2023/03/01 07:35:00;;;;;;;23.23;13.10;;;-1.70;1.00;;;0.63;100.00;96005.94;4970671;28;20216;-67
2023/03/01 07:37:27;;;;;;;19.53;12.17;;;-1.60;1.00;;;0.70;100.00;95998.09;4963643;28;20267;-67
2023/03/01 07:39:54;;;;;;;28.53;11.70;;;-1.60;1.00;;;0.86;100.00;95996.03;4968260;28;20212;-67
2023/03/01 07:42:22;;;;;;;22.90;12.30;;;-1.50;1.00;;;0.74;100.00;96002.81;4964400;28;20260;-67
2023/03/01 07:44:49;;;;;;;23.93;13.50;;;-1.50;1.00;;;0.77;100.00;95999.78;4968646;28;20605;-68
2023/03/01 07:47:16;;;;;;;23.47;12.80;;;-1.50;1.00;;;0.78;100.00;96004.03;4962202;28;20625;-67
2023/03/01 07:49:42;;;;;;;22.67;12.63;;;-1.50;1.00;;;0.73;100.00;96001.16;4964441;28;21006;-67
2023/03/01 07:52:11;;;;;;;21.10;11.70;;;-1.50;1.00;;;0.83;100.00;96000.84;4962176;28;20743;-67
2023/03/01 07:54:38;;;;;;;21.67;13.47;;;-1.50;1.00;;;0.80;100.00;96003.84;4961490;28;20213;-67
2023/03/01 07:57:05;;;;;;;18.80;12.20;;;-1.50;1.00;;;0.89;100.00;95994.81;4965954;28;20216;-67
2023/03/01 07:59:33;;;;;;;21.97;12.60;;;-1.40;1.00;;;0.86;100.00;95996.03;4967148;28;20678;-67
2023/03/01 08:02:00;;;;;;;22.07;12.60;;;-1.40;1.00;;;1.03;100.00;95996.56;4964469;28;20718;-67
2023/03/01 08:04:27;;;;;;;26.87;14.43;;;-1.40;1.00;;;0.89;100.00;95993.03;4965478;28;20213;-67
2023/03/01 08:06:54;;;;;;;21.60;13.07;;;-1.30;1.00;;;1.04;100.00;95988.50;4974835;28;20217;-67
2023/03/01 08:09:22;;;;;;;20.43;12.70;;;-1.30;1.00;;;1.02;100.00;95984.44;4969599;28;20223;-67
2023/03/01 08:11:48;;;;;;;23.13;13.27;;;-1.30;1.00;;;0.98;100.00;95985.81;4970280;28;20216;-67
2023/03/01 08:14:15;;;;;;;21.70;13.20;;;-1.20;1.00;;;1.01;100.00;95986.25;4968664;28;20264;-67
2023/03/01 08:16:43;;;;;;;24.00;13.33;;;-1.20;1.00;;;1.08;100.00;95983.66;4973691;28;20279;-67
2023/03/01 08:19:12;;;;;;;21.43;11.87;;;-1.20;1.00;;;1.04;100.00;95983.25;4964064;28;20220;-67
2023/03/01 08:21:39;;;;;;;23.17;12.83;;;-1.20;1.00;;;1.19;100.00;95983.97;4972474;28;20733;-67
2023/03/01 08:24:09;;;;;;;24.37;14.07;;;-1.10;1.00;;;1.16;100.00;95986.94;4967846;28;20774;-67
2023/03/01 08:26:37;;;;;;;18.90;12.03;;;-1.10;1.00;;;1.23;100.00;95987.78;4967819;28;20656;-67
2023/03/01 08:29:04;;;;;;;24.93;13.23;;;-1.10;1.00;;;1.28;100.00;95980.16;4962156;28;20263;-67
2023/03/01 08:31:35;;;;;;;23.07;13.40;;;-1.00;1.00;;;1.32;100.00;95984.03;4971161;28;20219;-67
2023/03/01 08:34:07;;;;;;;23.63;13.57;;;-1.00;1.00;;;1.30;100.00;95979.97;4968677;28;20265;-67
2023/03/01 08:36:38;;;;;;;20.97;11.90;;;-0.90;1.00;;;1.33;100.00;95969.88;4962425;28;20205;-67
2023/03/01 08:39:06;;;;;;;22.03;12.37;;;-0.90;1.00;;;1.55;100.00;95976.69;4966933;28;20291;-67
2023/03/01 08:41:33;;;;;;;21.13;12.40;;;-0.90;1.00;;;1.57;100.00;95974.66;4967551;28;20205;-67
2023/03/01 08:44:00;;;;;;;23.93;12.70;;;-0.80;1.00;;;1.54;100.00;95976.88;4964117;28;20235;-68
2023/03/01 08:46:28;;;;;;;20.13;12.33;;;-0.80;1.00;;;1.39;100.00;95984.06;4966530;28;20220;-67
2023/03/01 08:48:55;;;;;;;22.83;12.77;;;-0.80;1.00;;;1.54;100.00;95979.50;4967340;28;20717;-68
2023/03/01 08:51:24;;;;;;;21.47;12.73;;;-0.70;1.00;;;1.62;100.00;95967.00;4966182;28;20233;-67
2023/03/01 08:53:51;;;;;;;21.53;12.33;;;-0.70;1.00;;;1.70;100.00;95972.09;4961867;28;20261;-67
2023/03/01 08:56:19;;;;;;;21.63;12.37;;;-0.70;1.00;;;1.59;100.00;95967.38;4967800;28;20611;-69
2023/03/01 08:58:48;;;;;;;23.03;13.13;;;-0.60;1.00;;;1.61;100.00;95962.75;4964137;28;20705;-70
2023/03/01 09:01:17;;;;;;;24.77;12.77;;;-0.50;1.00;;;1.76;100.00;95973.13;4967240;28;20244;-69
2023/03/01 09:03:45;;;;;;;23.17;12.50;;;-0.50;1.00;;;1.71;100.00;95960.56;4965524;28;20292;-69
2023/03/01 09:06:14;;;;;;;23.03;12.20;;;-0.50;1.00;;;1.82;100.00;95961.81;4965138;28;20239;-69
2023/03/01 09:08:46;;;;;;;24.63;13.73;;;-0.50;1.00;;;1.76;100.00;95952.91;4964447;28;20357;-69
2023/03/01 09:11:16;;;;;;;24.10;14.10;;;-0.50;1.00;;;1.81;100.00;95953.13;4967682;28;20263;-69
2023/03/01 09:13:43;;;;;;;23.77;12.87;;;-0.50;1.00;;;1.87;100.00;95943.63;4960163;28;20308;-70
2023/03/01 09:16:13;;;;;;;25.30;13.87;;;-0.40;1.00;;;1.92;100.00;95947.31;4967955;28;20266;-69
2023/03/01 09:18:41;;;;;;;22.50;12.97;;;-0.40;1.00;;;1.88;100.00;95945.28;4964925;28;20677;-69
2023/03/01 09:21:09;;;;;;;22.90;13.33;;;-0.30;1.00;;;2.02;100.00;95942.47;4969640;28;20227;-69
2023/03/01 09:23:38;;;;;;;25.60;14.33;;;-0.30;1.00;;;2.06;100.00;95940.25;4966543;28;20228;-69
2023/03/01 09:26:08;;;;;;;23.57;12.90;;;-0.20;1.00;;;2.10;100.00;95937.03;4961627;28;20252;-69
2023/03/01 09:28:36;;;;;;;24.77;13.40;;;-0.20;1.00;;;2.09;100.00;95934.59;4959764;28;20220;-69
2023/03/01 09:31:04;;;;;;;23.77;14.33;;;-0.20;1.00;;;2.23;100.00;95930.97;4963134;28;20208;-69
2023/03/01 09:33:32;;;;;;;21.97;13.43;;;-0.10;1.00;;;2.25;100.00;95928.97;4966760;28;20209;-69
2023/03/01 09:36:00;;;;;;;28.87;14.90;;;-0.10;1.00;;;2.29;100.00;95922.31;4968346;28;20219;-69
2023/03/01 09:38:27;;;;;;;26.13;14.63;;;-0.10;1.00;;;2.21;100.00;95922.47;4968961;28;20239;-68
2023/03/01 09:40:55;;;;;;;19.93;12.73;;;0.00;1.00;;;2.15;100.00;95920.66;4961873;28;20579;-69
2023/03/01 09:43:30;;;;;;;22.93;13.47;;;0.00;1.00;;;2.23;100.00;95923.91;4968475;28;20291;-69
2023/03/01 09:46:04;;;;;;;22.70;13.67;;;0.00;1.00;;;2.35;100.00;95921.50;4965784;28;20304;-68
2023/03/01 09:48:42;;;;;;;24.10;13.37;;;0.00;1.00;;;2.39;100.00;95925.34;4965542;28;20545;-68
2023/03/01 09:51:18;;;;;;;21.47;13.63;;;0.00;1.00;;;2.32;100.00;95925.34;4968578;28;20217;-68
2023/03/01 09:53:45;;;;;;;23.00;13.50;;;0.10;1.00;;;2.27;100.00;95922.50;4966489;28;20666;-68
2023/03/01 09:56:21;;;;;;;26.07;13.53;;;0.10;1.00;;;2.38;100.00;95921.91;4967258;28;20212;-68
2023/03/01 09:58:57;;;;;;;25.57;13.70;;;0.10;1.00;;;2.39;100.00;95920.09;4962728;28;20222;-68
2023/03/01 10:01:34;;;;;;;24.80;13.07;;;0.20;1.00;;;2.49;100.00;95923.94;4965268;28;20295;-68
2023/03/01 10:04:28;;;;;;;26.40;14.03;;;0.20;1.00;;;2.61;100.00;95914.44;4966558;28;20254;-68
2023/03/01 10:07:08;;;;;;;22.00;13.30;;;0.40;1.00;;;2.68;100.00;95919.66;4962700;28;20209;-68
2023/03/01 10:09:38;;;;;;;24.00;13.73;;;0.40;1.00;;;2.78;100.00;95914.81;4961584;28;20212;-68
2023/03/01 10:12:10;;;;;;;23.60;14.07;;;0.60;1.00;;;2.89;100.00;95908.94;4967043;28;20217;-68
2023/03/01 10:14:46;;;;;;;23.93;13.97;;;0.70;1.00;;;3.00;100.00;95909.13;4966915;28;20212;-69
2023/03/01 10:17:26;;;;;;;22.80;13.77;;;0.80;1.00;;;3.09;100.00;95912.34;4965777;28;20702;-68
2023/03/01 10:19:52;;;;;;;25.03;13.90;;;0.80;1.00;;;3.16;100.00;95903.41;4961728;28;20225;-69